createdAt,value
2022-10-14T00:04:40.469Z,57.34
2022-10-14T00:09:42.901Z,57.39
2022-10-14T00:14:45.077Z,57.37
2022-10-14T00:19:46.668Z,57.55
2022-10-14T00:24:48.717Z,57.52
2022-10-14T00:29:50.486Z,57.56
2022-10-14T00:34:52.316Z,57.61
2022-10-14T00:39:57.006Z,57.40
2022-10-14T00:45:10.887Z,57.59
2022-10-14T00:50:16.055Z,57.67
2022-10-14T00:55:19.612Z,57.76
2022-10-14T01:00:22.808Z,57.77
2022-10-14T01:05:32.003Z,57.86
2022-10-14T01:10:47.322Z,57.77
2022-10-14T01:16:04.922Z,57.75
2022-10-14T01:21:24.750Z,57.75
2022-10-14T01:26:37.883Z,58.00
2022-10-14T01:32:03.962Z,58.04
2022-10-14T01:37:15.504Z,57.80
2022-10-14T01:42:23.310Z,57.96
2022-10-14T01:47:29.461Z,58.04
2022-10-14T01:52:47.270Z,57.89
2022-10-14T01:57:52.219Z,57.99
2022-10-14T02:02:53.835Z,57.96
2022-10-14T02:08:27.450Z,57.93
2022-10-14T02:13:55.341Z,57.98
2022-10-14T02:19:23.349Z,57.92
2022-10-14T02:24:29.526Z,57.96
2022-10-14T02:29:33.539Z,58.00
2022-10-14T02:34:37.655Z,58.01
2022-10-14T02:39:54.751Z,57.96
2022-10-14T02:45:01.229Z,58.01
2022-10-14T02:50:03.715Z,57.94
2022-10-14T02:55:06.910Z,57.77
2022-10-14T03:00:09.479Z,58.19
2022-10-14T03:05:11.227Z,58.18
2022-10-14T03:10:14.343Z,58.28
2022-10-14T03:15:16.729Z,58.28
2022-10-14T03:20:18.585Z,58.35
2022-10-14T03:25:25.882Z,58.38
2022-10-14T03:30:35.415Z,58.51
2022-10-14T03:35:44.810Z,58.41
2022-10-14T03:40:49.895Z,58.52
2022-10-14T03:45:52.491Z,58.41
2022-10-14T03:50:56.783Z,58.15
2022-10-14T03:55:59.577Z,58.08
2022-10-14T04:01:01.790Z,58.12
2022-10-14T04:06:31.547Z,57.99
2022-10-14T04:11:57.643Z,58.10
2022-10-14T04:17:33.387Z,58.18
2022-10-14T04:23:01.059Z,58.26
2022-10-14T04:28:22.590Z,58.24
2022-10-14T04:33:53.500Z,58.32
2022-10-14T04:39:23.281Z,58.29
2022-10-14T04:44:25.747Z,58.31
2022-10-14T04:49:29.614Z,58.36
2022-10-14T04:54:40.679Z,58.34
2022-10-14T04:59:42.543Z,58.33
2022-10-14T05:04:50.252Z,58.37
2022-10-14T05:09:56.325Z,58.11
2022-10-14T05:15:09.534Z,58.52
2022-10-14T05:20:22.595Z,58.65
2022-10-14T05:25:28.342Z,58.65
2022-10-14T05:30:34.709Z,58.56
2022-10-14T05:35:58.173Z,58.53
2022-10-14T05:41:01.818Z,58.54
2022-10-14T05:46:03.899Z,58.61
2022-10-14T05:51:11.079Z,58.53
2022-10-14T05:56:13.694Z,58.72
2022-10-14T06:01:15.783Z,58.57
2022-10-14T06:06:18.884Z,58.66
2022-10-14T06:11:20.776Z,58.89
2022-10-14T06:16:22.528Z,58.74
2022-10-14T06:21:24.174Z,59.13
2022-10-14T06:26:25.878Z,59.21
2022-10-14T06:31:31.994Z,59.12
2022-10-14T06:36:35.236Z,59.09
2022-10-14T06:41:37.055Z,59.13
2022-10-14T06:46:38.640Z,59.13
2022-10-14T06:51:40.604Z,59.27
2022-10-14T06:56:42.364Z,59.27
2022-10-14T07:01:44.109Z,59.26
2022-10-14T07:06:45.730Z,59.64
2022-10-14T07:11:47.478Z,59.59
2022-10-14T07:16:49.171Z,59.66
2022-10-14T07:21:50.735Z,59.91
2022-10-14T07:26:52.642Z,59.78
2022-10-14T07:31:55.005Z,59.90
2022-10-14T07:36:56.664Z,60.03
2022-10-14T07:41:58.246Z,60.22
2022-10-14T07:47:01.733Z,60.06
2022-10-14T07:52:03.442Z,60.32
2022-10-14T07:57:05.059Z,60.37
2022-10-14T08:02:06.677Z,60.29
2022-10-14T08:07:08.525Z,60.26
2022-10-14T08:12:10.416Z,60.29
2022-10-14T08:17:12.190Z,60.32
2022-10-14T08:22:13.805Z,60.35
2022-10-14T08:27:16.359Z,60.57
2022-10-14T08:32:17.992Z,60.42
2022-10-14T08:37:19.770Z,60.58
2022-10-14T08:42:34.997Z,60.29
2022-10-14T08:47:43.034Z,60.34
2022-10-14T08:52:55.704Z,60.29
2022-10-14T08:58:27.284Z,60.49
2022-10-14T09:03:33.784Z,60.44
2022-10-14T09:08:43.185Z,60.24
2022-10-14T09:13:49.201Z,60.36
2022-10-14T09:18:55.131Z,60.39
2022-10-14T09:24:01.433Z,60.48
2022-10-14T09:29:03.151Z,60.17
2022-10-14T09:34:07.996Z,60.25
2022-10-14T09:39:12.219Z,60.33
2022-10-14T09:44:22.854Z,60.18
2022-10-14T09:49:46.515Z,59.82
2022-10-14T09:54:55.393Z,59.91
2022-10-14T10:00:03.723Z,59.83
2022-10-14T10:05:13.703Z,59.60
2022-10-14T10:10:21.122Z,59.68
2022-10-14T10:15:22.984Z,59.65
2022-10-14T10:20:32.105Z,59.92
2022-10-14T10:25:33.948Z,59.62
2022-10-14T10:30:43.466Z,59.34
2022-10-14T10:36:05.378Z,58.95
2022-10-14T10:41:37.198Z,58.88
2022-10-14T10:47:06.311Z,58.67
2022-10-14T10:52:30.624Z,58.42
2022-10-14T10:57:41.125Z,58.22
2022-10-14T11:02:55.049Z,58.00
2022-10-14T11:08:57.329Z,58.21
2022-10-14T11:14:12.955Z,58.15
2022-10-14T11:19:29.927Z,57.93
2022-10-14T11:24:54.537Z,57.63
2022-10-14T11:29:56.774Z,57.84
2022-10-14T11:35:18.383Z,57.90
2022-10-14T11:40:27.139Z,57.74
2022-10-14T11:45:47.026Z,57.49
2022-10-14T11:50:56.564Z,57.20
2022-10-14T11:56:09.610Z,57.25
2022-10-14T12:01:14.335Z,56.87
2022-10-14T12:06:21.662Z,56.75
2022-10-14T12:11:53.253Z,56.56
2022-10-14T12:16:55.938Z,56.52
2022-10-14T12:22:16.296Z,56.35
2022-10-14T12:27:19.601Z,55.95
2022-10-14T12:32:30.675Z,55.77
2022-10-14T12:37:43.143Z,55.76
2022-10-14T12:42:44.755Z,55.71
2022-10-14T12:48:03.156Z,55.61
2022-10-14T12:53:24.929Z,55.28
2022-10-14T12:58:37.078Z,55.00
2022-10-14T13:03:46.241Z,55.13
2022-10-14T13:09:12.940Z,55.27
2022-10-14T13:14:25.610Z,54.91
2022-10-14T13:19:33.428Z,54.72
2022-10-14T13:24:44.033Z,54.55
2022-10-14T13:30:08.700Z,54.44
2022-10-14T13:35:18.614Z,54.22
2022-10-14T13:40:35.743Z,54.35
2022-10-14T13:45:45.434Z,54.14
2022-10-14T13:50:50.799Z,54.07
2022-10-14T13:55:54.524Z,54.07
2022-10-14T14:00:59.573Z,53.97
2022-10-14T14:06:01.964Z,53.75
2022-10-14T14:11:22.039Z,54.00
2022-10-14T14:16:36.928Z,53.84
2022-10-14T14:21:38.530Z,53.94
2022-10-14T14:26:40.164Z,53.78
2022-10-14T14:37:43.512Z,53.47
2022-10-14T14:42:35.944Z,53.27
2022-10-14T14:47:37.834Z,53.24
2022-10-14T14:52:41.377Z,53.17
2022-10-14T14:57:45.055Z,53.08
2022-10-14T15:02:49.760Z,53.35
2022-10-14T15:07:51.797Z,53.27
2022-10-14T15:12:56.414Z,53.29
2022-10-14T15:18:22.099Z,53.36
2022-10-14T15:23:40.310Z,53.26
2022-10-14T15:28:41.930Z,53.32
2022-10-14T15:33:43.655Z,53.26
2022-10-14T15:38:45.446Z,53.34
2022-10-14T15:43:48.212Z,53.19
2022-10-14T15:48:52.473Z,53.27
2022-10-14T15:53:54.302Z,53.32
2022-10-14T15:58:55.939Z,53.44
2022-10-14T16:03:58.007Z,53.33
2022-10-14T16:08:59.692Z,53.53
2022-10-14T16:14:01.277Z,53.57
2022-10-14T16:19:03.625Z,53.54
2022-10-14T16:24:06.495Z,53.64
2022-10-14T16:29:08.219Z,53.70
2022-10-14T16:34:10.207Z,53.69
2022-10-14T16:39:13.150Z,53.86
2022-10-14T16:44:27.675Z,53.88
2022-10-14T16:49:29.425Z,53.91
2022-10-14T16:54:31.250Z,54.10
2022-10-14T16:59:34.909Z,54.15
2022-10-14T17:04:37.563Z,54.05
2022-10-14T17:09:39.801Z,54.15
2022-10-14T17:14:41.538Z,54.18
2022-10-14T17:19:43.495Z,54.24
2022-10-14T17:24:45.400Z,54.15
2022-10-14T17:29:47.878Z,54.24
2022-10-14T17:34:53.314Z,54.44
2022-10-14T17:39:55.434Z,54.58
2022-10-14T17:44:57.200Z,54.56
2022-10-14T17:49:59.385Z,54.44
2022-10-14T17:55:01.644Z,54.56
2022-10-14T18:00:04.376Z,54.63
2022-10-14T18:05:13.768Z,54.60
2022-10-14T18:10:15.608Z,54.55
2022-10-14T18:15:17.469Z,54.77
2022-10-14T18:20:19.297Z,54.80
2022-10-14T18:25:21.325Z,54.91
2022-10-14T18:30:22.919Z,54.71
2022-10-14T18:35:24.583Z,55.23
2022-10-14T18:40:26.381Z,55.03
2022-10-14T18:45:27.993Z,54.98
2022-10-14T18:50:29.650Z,55.22
2022-10-14T18:55:31.347Z,55.49
2022-10-14T19:00:33.576Z,55.45
2022-10-14T19:05:36.293Z,55.45
2022-10-14T19:10:38.366Z,55.67
2022-10-14T19:15:51.387Z,56.14
2022-10-14T19:20:56.416Z,56.20
2022-10-14T19:25:59.320Z,56.26
2022-10-14T19:31:09.193Z,56.52
2022-10-14T19:36:16.639Z,56.67
2022-10-14T19:41:18.936Z,56.73
2022-10-14T19:46:27.551Z,56.72
2022-10-14T19:51:29.254Z,56.65
2022-10-14T19:56:31.266Z,56.65
2022-10-14T20:01:33.220Z,56.84
2022-10-14T20:06:36.755Z,56.77
2022-10-14T20:11:38.419Z,56.89
2022-10-14T20:16:40.201Z,56.90
2022-10-14T20:21:41.940Z,57.18
2022-10-14T20:26:43.742Z,57.06
2022-10-14T20:31:46.811Z,56.91
2022-10-14T20:36:48.714Z,57.03
2022-10-14T20:41:50.728Z,57.34
2022-10-14T20:46:52.595Z,56.99
2022-10-14T20:51:54.238Z,57.05
2022-10-14T20:56:55.987Z,56.93
2022-10-14T21:01:57.577Z,57.08
2022-10-14T21:06:59.174Z,57.25
2022-10-14T21:12:00.820Z,57.29
2022-10-14T21:17:02.846Z,57.23
2022-10-14T21:22:04.437Z,57.66
2022-10-14T21:27:06.231Z,57.38
2022-10-14T21:32:08.553Z,57.56
2022-10-14T21:37:10.152Z,57.49
2022-10-14T21:42:11.814Z,57.63
2022-10-14T21:47:14.413Z,57.45
2022-10-14T21:52:17.229Z,57.66
2022-10-14T21:57:18.934Z,57.81
2022-10-14T22:02:22.643Z,57.79
2022-10-14T22:07:24.635Z,57.90
2022-10-14T22:12:28.707Z,57.89
2022-10-14T22:17:30.728Z,57.87
2022-10-14T22:22:32.366Z,58.19
2022-10-14T22:27:33.957Z,57.80
2022-10-14T22:32:35.614Z,58.05
2022-10-14T22:37:37.216Z,58.18
2022-10-14T22:42:42.075Z,58.22
2022-10-14T22:47:44.186Z,58.30
2022-10-14T22:52:45.713Z,58.60
2022-10-14T22:57:47.618Z,58.43
2022-10-14T23:02:49.259Z,58.40
2022-10-14T23:07:50.901Z,57.96
2022-10-14T23:12:52.557Z,58.32
2022-10-14T23:17:54.516Z,58.31
2022-10-14T23:22:56.087Z,58.56
2022-10-14T23:27:57.680Z,58.66
2022-10-14T23:32:59.275Z,58.48
2022-10-14T23:38:00.921Z,58.69
2022-10-14T23:43:02.472Z,58.40
2022-10-14T23:48:04.364Z,58.68
2022-10-14T23:53:05.929Z,58.52
2022-10-14T23:58:07.627Z,58.79
